createdAt,value
2018-03-26T00:01:43.882Z,3.72
2018-03-26T00:04:16.545Z,3.96
2018-03-26T00:06:44.990Z,4.20
2018-03-26T00:09:13.415Z,4.00
2018-03-26T00:11:42.696Z,4.17
2018-03-26T00:14:13.188Z,4.08
2018-03-26T00:16:43.499Z,4.02
2018-03-26T00:19:13.525Z,3.89
2018-03-26T00:21:41.954Z,3.88
2018-03-26T00:24:12.401Z,3.74
2018-03-26T00:26:40.826Z,3.65
2018-03-26T00:29:11.333Z,3.63
2018-03-26T00:31:39.800Z,3.59
2018-03-26T00:34:08.213Z,3.77
2018-03-26T00:36:36.730Z,3.68
2018-03-26T00:39:07.346Z,3.72
2018-03-26T00:41:35.794Z,3.70
2018-03-26T00:44:06.154Z,3.66
2018-03-26T00:46:34.631Z,3.65
2018-03-26T00:49:03.119Z,3.74
2018-03-26T00:51:31.578Z,3.81
2018-03-26T00:54:02.017Z,3.73
2018-03-26T00:56:32.099Z,3.72
2018-03-26T00:59:00.545Z,3.71
2018-03-26T01:01:29.218Z,3.70
2018-03-26T01:03:59.604Z,3.67
2018-03-26T01:06:28.031Z,3.65
2018-03-26T01:08:56.469Z,3.67
2018-03-26T01:11:24.988Z,3.67
2018-03-26T01:13:53.526Z,3.60
2018-03-26T01:16:24.137Z,3.97
2018-03-26T01:18:52.559Z,3.65
2018-03-26T01:21:23.149Z,3.86
2018-03-26T01:23:51.565Z,3.79
2018-03-26T01:26:21.753Z,3.53
2018-03-26T01:28:51.907Z,3.30
2018-03-26T01:31:20.344Z,3.26
2018-03-26T01:33:51.160Z,3.14
2018-03-26T01:36:19.665Z,3.06
2018-03-26T01:38:48.037Z,3.09
2018-03-26T01:41:16.497Z,3.07
2018-03-26T01:43:44.945Z,3.05
2018-03-26T01:46:13.372Z,3.07
2018-03-26T01:48:45.385Z,3.02
2018-03-26T01:51:13.825Z,3.00
2018-03-26T01:53:42.249Z,2.95
2018-03-26T01:56:12.185Z,3.07
2018-03-26T01:58:40.598Z,2.89
2018-03-26T02:01:10.694Z,2.86
2018-03-26T02:03:39.109Z,2.87
2018-03-26T02:06:07.568Z,2.86
2018-03-26T02:08:35.993Z,2.86
2018-03-26T02:11:04.456Z,2.79
2018-03-26T02:13:32.913Z,3.05
2018-03-26T02:16:02.262Z,3.27
2018-03-26T02:18:34.390Z,2.98
2018-03-26T02:21:02.819Z,3.07
2018-03-26T02:23:31.221Z,3.06
2018-03-26T02:25:59.649Z,2.93
2018-03-26T02:28:28.148Z,2.95
2018-03-26T02:30:56.572Z,3.03
2018-03-26T02:33:25.039Z,2.95
2018-03-26T02:35:53.498Z,2.79
2018-03-26T02:38:23.464Z,2.86
2018-03-26T02:40:51.913Z,2.74
2018-03-26T02:43:20.436Z,2.71
2018-03-26T02:45:48.872Z,2.71
2018-03-26T02:48:17.637Z,2.84
2018-03-26T02:50:46.106Z,3.02
2018-03-26T02:53:14.537Z,3.05
2018-03-26T02:55:46.506Z,2.86
2018-03-26T02:58:15.001Z,2.79
2018-03-26T03:00:45.353Z,2.77
2018-03-26T03:03:19.909Z,2.60
2018-03-26T03:05:48.354Z,2.63
2018-03-26T03:08:16.713Z,2.81
2018-03-26T03:10:45.164Z,2.71
2018-03-26T03:13:13.752Z,2.50
2018-03-26T03:15:42.251Z,2.43
2018-03-26T03:18:11.009Z,2.43
2018-03-26T03:20:42.825Z,2.44
2018-03-26T03:23:12.304Z,2.45
2018-03-26T03:25:40.717Z,2.46
2018-03-26T03:28:09.140Z,2.40
2018-03-26T03:30:39.102Z,2.48
2018-03-26T03:33:07.540Z,2.74
2018-03-26T03:35:35.961Z,2.84
2018-03-26T03:38:06.548Z,2.77
2018-03-26T03:40:34.956Z,2.67
2018-03-26T03:43:06.819Z,2.49
2018-03-26T03:45:37.208Z,2.29
2018-03-26T03:48:05.714Z,2.26
2018-03-26T03:50:34.137Z,2.27
2018-03-26T03:53:02.817Z,2.16
2018-03-26T03:55:33.019Z,2.43
2018-03-26T03:58:03.829Z,2.42
2018-03-26T04:00:32.290Z,2.46
2018-03-26T04:03:00.761Z,2.60
2018-03-26T04:05:29.265Z,2.63
2018-03-26T04:07:57.704Z,2.59
2018-03-26T04:10:26.185Z,2.39
2018-03-26T04:12:57.036Z,2.12
2018-03-26T04:15:26.256Z,2.34
2018-03-26T04:17:54.693Z,2.58
2018-03-26T04:20:23.142Z,2.34
2018-03-26T04:22:53.117Z,2.16
2018-03-26T04:25:21.537Z,2.40
2018-03-26T04:27:49.957Z,2.32
2018-03-26T04:30:18.404Z,2.26
2018-03-26T04:32:46.819Z,2.30
2018-03-26T04:35:15.245Z,1.99
2018-03-26T04:37:43.724Z,1.93
2018-03-26T04:40:12.264Z,1.88
2018-03-26T04:42:40.669Z,1.80
2018-03-26T04:45:09.075Z,1.87
2018-03-26T04:47:37.513Z,2.08
2018-03-26T04:50:06.021Z,2.14
2018-03-26T04:52:36.750Z,2.32
2018-03-26T04:55:07.282Z,2.29
2018-03-26T04:57:35.737Z,2.10
2018-03-26T05:00:04.216Z,2.17
2018-03-26T05:02:32.647Z,2.09
2018-03-26T05:05:03.447Z,1.83
2018-03-26T05:07:32.483Z,1.83
2018-03-26T05:10:03.035Z,1.69
2018-03-26T05:12:31.486Z,1.76
2018-03-26T05:14:59.915Z,2.16
2018-03-26T05:17:28.337Z,2.17
2018-03-26T05:19:56.773Z,1.96
2018-03-26T05:22:25.234Z,1.91
2018-03-26T05:24:53.658Z,1.94
2018-03-26T05:27:22.504Z,1.93
2018-03-26T05:29:50.901Z,1.72
2018-03-26T05:32:21.138Z,1.76
2018-03-26T05:34:51.693Z,2.05
2018-03-26T05:37:20.104Z,1.98
2018-03-26T05:39:48.570Z,1.80
2018-03-26T05:42:16.993Z,1.77
2018-03-26T05:44:49.609Z,1.88
2018-03-26T05:47:18.033Z,1.83
2018-03-26T05:49:46.427Z,1.74
2018-03-26T05:52:15.165Z,1.68
2018-03-26T05:54:43.572Z,1.82
2018-03-26T05:57:11.972Z,1.78
2018-03-26T05:59:40.442Z,1.72
2018-03-26T06:02:08.903Z,1.81
2018-03-26T06:04:37.510Z,2.12
2018-03-26T06:07:05.913Z,2.42
2018-03-26T06:09:34.338Z,2.72
2018-03-26T06:12:03.890Z,3.02
2018-03-26T06:14:32.456Z,3.31
2018-03-26T06:17:12.558Z,3.69
2018-03-26T06:19:42.573Z,3.99
2018-03-26T06:22:10.965Z,4.18
2018-03-26T06:24:40.942Z,4.28
2018-03-26T06:27:09.409Z,4.50
2018-03-26T06:29:37.880Z,4.81
2018-03-26T06:32:06.333Z,5.05
2018-03-26T06:34:34.777Z,5.13
2018-03-26T06:37:11.376Z,5.23
2018-03-26T06:39:42.298Z,5.11
2018-03-26T06:42:10.684Z,5.05
2018-03-26T06:44:39.084Z,4.95
2018-03-26T06:47:10.282Z,4.94
2018-03-26T06:49:38.771Z,4.96
2018-03-26T06:52:09.816Z,5.28
2018-03-26T06:54:38.215Z,5.54
2018-03-26T06:57:06.626Z,5.61
2018-03-26T06:59:36.148Z,5.78
2018-03-26T07:02:05.868Z,5.89
2018-03-26T07:04:36.844Z,5.82
2018-03-26T07:07:06.129Z,6.06
2018-03-26T07:09:36.208Z,6.43
2018-03-26T07:12:04.625Z,6.32
2018-03-26T07:14:34.099Z,6.34
2018-03-26T07:17:02.603Z,6.22
2018-03-26T07:19:31.055Z,6.31
2018-03-26T07:22:00.613Z,6.79
2018-03-26T07:24:31.457Z,7.20
2018-03-26T07:27:00.984Z,7.71
2018-03-26T07:29:29.362Z,7.73
2018-03-26T07:31:57.789Z,7.78
2018-03-26T07:34:27.409Z,7.94
2018-03-26T07:36:55.966Z,8.00
2018-03-26T07:39:25.230Z,8.11
2018-03-26T07:41:53.651Z,7.97
2018-03-26T07:44:22.113Z,8.22
2018-03-26T07:46:50.661Z,8.01
2018-03-26T07:49:19.141Z,8.01
2018-03-26T07:51:47.640Z,7.93
2018-03-26T07:54:16.117Z,7.82
2018-03-26T07:56:45.656Z,7.74
2018-03-26T07:59:14.159Z,7.97
2018-03-26T08:01:42.549Z,8.16
2018-03-26T08:04:10.977Z,8.24
2018-03-26T08:06:39.413Z,8.15
2018-03-26T08:09:07.836Z,8.19
2018-03-26T08:11:36.269Z,8.19
2018-03-26T08:14:04.781Z,8.24
2018-03-26T08:16:34.106Z,8.15
2018-03-26T08:19:04.022Z,8.13
2018-03-26T08:21:32.458Z,8.17
2018-03-26T08:24:02.088Z,8.11
2018-03-26T08:26:30.543Z,8.02
2018-03-26T08:28:59.005Z,8.17
2018-03-26T08:31:27.710Z,8.20
2018-03-26T08:33:56.125Z,8.51
2018-03-26T08:36:24.610Z,9.13
2018-03-26T08:38:53.451Z,10.12
2018-03-26T08:41:21.889Z,11.37
2018-03-26T08:43:50.301Z,13.22
2018-03-26T08:46:18.760Z,14.31
2018-03-26T08:48:47.188Z,14.67
2018-03-26T08:51:16.702Z,14.58
2018-03-26T08:53:46.136Z,14.24
2018-03-26T08:56:14.582Z,14.64
2018-03-26T08:58:43.041Z,15.04
2018-03-26T09:01:11.514Z,15.11
2018-03-26T09:03:40.844Z,15.03
2018-03-26T09:06:08.487Z,14.78
2018-03-26T09:08:38.083Z,14.60
2018-03-26T09:11:07.803Z,14.45
2018-03-26T09:13:36.386Z,14.95
2018-03-26T09:16:05.220Z,15.53
2018-03-26T09:18:33.700Z,16.26
2018-03-26T09:21:02.160Z,16.28
2018-03-26T09:23:30.563Z,16.21
2018-03-26T09:25:58.986Z,17.06
2018-03-26T09:28:27.417Z,16.97
2018-03-26T09:30:55.865Z,17.00
2018-03-26T09:33:24.277Z,17.15
2018-03-26T09:35:52.729Z,17.56
2018-03-26T09:38:21.202Z,17.65
2018-03-26T09:40:48.632Z,17.80
2018-03-26T09:43:19.331Z,17.61
2018-03-26T09:45:47.794Z,17.97
2018-03-26T09:48:16.302Z,18.01
2018-03-26T09:50:44.713Z,17.35
2018-03-26T09:53:13.268Z,16.97
2018-03-26T09:55:42.750Z,17.35
2018-03-26T09:58:13.482Z,17.17
2018-03-26T10:00:47.978Z,16.82
2018-03-26T10:03:16.393Z,16.57
2018-03-26T10:05:44.876Z,16.86
2018-03-26T10:08:13.347Z,16.08
2018-03-26T10:10:41.929Z,15.71
2018-03-26T10:13:10.396Z,15.72
2018-03-26T10:15:39.856Z,15.47
2018-03-26T10:18:09.463Z,15.40
2018-03-26T10:20:37.957Z,15.04
2018-03-26T10:23:07.405Z,14.61
2018-03-26T10:25:36.588Z,14.38
2018-03-26T10:28:05.096Z,14.00
2018-03-26T10:30:34.952Z,13.72
2018-03-26T10:33:03.342Z,13.58
2018-03-26T10:35:32.782Z,13.30
2018-03-26T10:38:03.073Z,12.88
2018-03-26T10:40:31.501Z,12.76
2018-03-26T10:42:59.915Z,12.45
2018-03-26T10:45:28.357Z,12.53
2018-03-26T10:47:56.835Z,12.01
2018-03-26T10:50:25.257Z,11.64
2018-03-26T10:52:54.896Z,11.75
2018-03-26T10:55:23.326Z,11.96
2018-03-26T10:57:51.771Z,12.10
2018-03-26T11:00:21.365Z,11.88
2018-03-26T11:02:49.828Z,12.03
2018-03-26T11:05:18.262Z,12.20
2018-03-26T11:07:46.835Z,11.93
2018-03-26T11:10:15.309Z,11.75
2018-03-26T11:12:43.753Z,11.43
2018-03-26T11:15:12.189Z,11.20
2018-03-26T11:17:40.942Z,11.13
2018-03-26T11:20:09.591Z,11.04
2018-03-26T11:22:38.010Z,10.87
2018-03-26T11:25:08.862Z,10.59
2018-03-26T11:27:37.289Z,10.28
2018-03-26T11:30:07.022Z,10.40
2018-03-26T11:32:35.470Z,10.25
2018-03-26T11:35:06.638Z,10.17
2018-03-26T11:37:35.062Z,9.94
2018-03-26T11:40:03.619Z,9.72
2018-03-26T11:42:33.210Z,9.68
2018-03-26T11:45:01.628Z,9.65
2018-03-26T11:47:33.753Z,9.62
2018-03-26T11:50:04.878Z,9.59
2018-03-26T11:52:33.318Z,9.73
2018-03-26T11:55:01.751Z,9.63
2018-03-26T11:57:30.226Z,9.72
2018-03-26T11:59:58.680Z,9.89
2018-03-26T12:02:27.258Z,9.96
2018-03-26T12:04:57.095Z,9.96
2018-03-26T12:07:25.704Z,9.84
2018-03-26T12:09:54.205Z,9.86
2018-03-26T12:12:22.820Z,9.94
2018-03-26T12:14:52.638Z,9.78
2018-03-26T12:17:21.097Z,10.10
2018-03-26T12:19:55.743Z,10.36
2018-03-26T12:22:25.228Z,10.68
2018-03-26T12:24:55.632Z,10.43
2018-03-26T12:27:24.080Z,10.30
2018-03-26T12:29:58.766Z,10.34
2018-03-26T12:32:28.509Z,10.18
2018-03-26T12:35:03.136Z,10.19
2018-03-26T12:37:31.587Z,10.09
2018-03-26T12:40:00.238Z,10.15
2018-03-26T12:42:28.672Z,10.02
2018-03-26T12:45:03.417Z,10.14
2018-03-26T12:47:31.805Z,10.12
2018-03-26T12:50:01.855Z,10.13
2018-03-26T12:52:37.813Z,10.09
2018-03-26T12:55:07.541Z,10.16
2018-03-26T12:57:42.245Z,10.09
2018-03-26T13:00:10.625Z,10.00
2018-03-26T13:02:39.129Z,9.78
2018-03-26T13:05:07.591Z,9.87
2018-03-26T13:07:37.357Z,9.54
2018-03-26T13:10:05.816Z,9.67
2018-03-26T13:12:34.236Z,9.41
2018-03-26T13:15:03.305Z,9.40
2018-03-26T13:17:31.726Z,9.18
2018-03-26T13:20:03.143Z,8.85
2018-03-26T13:22:31.572Z,8.91
2018-03-26T13:25:01.493Z,9.09
2018-03-26T13:27:30.026Z,9.06
2018-03-26T13:29:58.438Z,9.19
2018-03-26T13:32:29.517Z,9.16
2018-03-26T13:34:58.029Z,9.14
2018-03-26T13:37:26.483Z,9.15
2018-03-26T13:39:55.075Z,9.01
2018-03-26T13:42:26.287Z,8.94
2018-03-26T13:44:55.882Z,9.07
2018-03-26T13:47:24.306Z,9.17
2018-03-26T13:49:52.861Z,9.23
2018-03-26T13:52:21.302Z,9.27
2018-03-26T13:54:50.346Z,9.24
2018-03-26T13:57:18.830Z,9.30
2018-03-26T13:59:47.319Z,9.12
2018-03-26T14:02:15.793Z,9.18
2018-03-26T14:04:44.221Z,9.14
2018-03-26T14:07:12.684Z,9.10
2018-03-26T14:09:47.459Z,9.04
2018-03-26T14:12:21.837Z,9.07
2018-03-26T14:14:56.474Z,8.93
2018-03-26T14:17:31.394Z,8.90
2018-03-26T14:19:59.786Z,8.81
2018-03-26T14:22:29.786Z,8.83
2018-03-26T14:24:59.789Z,8.71
2018-03-26T14:27:28.254Z,8.70
2018-03-26T14:29:59.342Z,8.59
2018-03-26T14:32:30.071Z,8.59
2018-03-26T14:35:04.756Z,8.56
2018-03-26T14:37:33.218Z,8.50
2018-03-26T14:40:01.674Z,8.50
2018-03-26T14:42:31.672Z,8.57
2018-03-26T14:45:00.137Z,8.57
2018-03-26T14:47:28.578Z,8.53
2018-03-26T14:49:57.011Z,8.29
2018-03-26T14:52:27.422Z,8.30
2018-03-26T14:54:57.934Z,8.08
2018-03-26T14:57:26.358Z,7.92
2018-03-26T14:59:54.856Z,7.85
2018-03-26T15:02:23.350Z,7.61
2018-03-26T15:04:53.306Z,7.76
2018-03-26T15:07:21.766Z,7.59
2018-03-26T15:09:50.222Z,7.27
2018-03-26T15:12:20.194Z,7.07
2018-03-26T15:14:50.272Z,6.92
2018-03-26T15:17:18.660Z,6.72
2018-03-26T15:19:47.342Z,6.68
2018-03-26T15:22:15.805Z,6.73
2018-03-26T15:24:45.707Z,6.66
2018-03-26T15:27:14.183Z,6.76
2018-03-26T15:29:45.754Z,6.83
2018-03-26T15:32:14.261Z,6.78
2018-03-26T15:34:42.717Z,6.82
2018-03-26T15:37:11.194Z,6.82
2018-03-26T15:39:39.740Z,6.93
2018-03-26T15:42:08.238Z,7.09
2018-03-26T15:44:36.798Z,6.88
2018-03-26T15:47:05.245Z,6.64
2018-03-26T15:49:33.672Z,6.39
2018-03-26T15:52:03.850Z,6.13
2018-03-26T15:54:33.814Z,6.03
2018-03-26T15:57:03.738Z,6.03
2018-03-26T15:59:32.209Z,6.01
2018-03-26T16:02:00.540Z,5.94
2018-03-26T16:04:31.470Z,5.83
2018-03-26T16:07:02.054Z,5.98
2018-03-26T16:09:32.130Z,5.95
2018-03-26T16:12:00.564Z,6.05
2018-03-26T16:14:29.033Z,6.11
2018-03-26T16:16:59.087Z,6.19
2018-03-26T16:19:27.517Z,6.06
2018-03-26T16:21:57.510Z,5.85
2018-03-26T16:24:27.598Z,5.63
2018-03-26T16:26:56.049Z,5.66
2018-03-26T16:29:25.662Z,5.77
2018-03-26T16:31:56.641Z,5.85
2018-03-26T16:34:25.100Z,5.89
2018-03-26T16:36:57.007Z,5.91
2018-03-26T16:39:25.426Z,5.83
2018-03-26T16:42:00.011Z,5.90
2018-03-26T16:44:28.421Z,5.90
2018-03-26T16:46:57.441Z,5.89
2018-03-26T16:49:25.876Z,6.00
2018-03-26T16:51:55.072Z,6.05
2018-03-26T16:54:23.526Z,5.99
2018-03-26T16:56:51.990Z,5.96
2018-03-26T16:59:24.029Z,5.90
2018-03-26T17:01:52.476Z,5.81
2018-03-26T17:04:22.333Z,5.68
2018-03-26T17:06:50.772Z,5.67
2018-03-26T17:09:21.206Z,5.87
2018-03-26T17:11:49.682Z,5.90
2018-03-26T17:14:18.169Z,5.84
2018-03-26T17:16:50.066Z,5.78
2018-03-26T17:19:18.549Z,5.68
2018-03-26T17:21:48.970Z,5.78
2018-03-26T17:24:17.473Z,5.74
2018-03-26T17:26:46.250Z,5.76
2018-03-26T17:29:14.690Z,5.73
2018-03-26T17:31:43.110Z,5.95
2018-03-26T17:34:11.832Z,6.01
2018-03-26T17:36:40.381Z,6.07
2018-03-26T17:39:08.813Z,5.90
2018-03-26T17:41:37.273Z,5.75
2018-03-26T17:44:07.695Z,5.74
2018-03-26T17:46:36.248Z,5.74
2018-03-26T17:49:04.718Z,5.74
2018-03-26T17:51:33.155Z,5.76
2018-03-26T17:54:01.662Z,5.78
2018-03-26T17:56:31.338Z,5.79
2018-03-26T17:58:59.773Z,5.74
2018-03-26T18:01:28.194Z,5.67
2018-03-26T18:03:56.633Z,5.56
2018-03-26T18:06:27.057Z,5.65
2018-03-26T18:08:56.448Z,5.78
2018-03-26T18:11:25.047Z,5.72
2018-03-26T18:13:53.500Z,5.50
2018-03-26T18:16:27.093Z,5.54
2018-03-26T18:18:55.564Z,5.50
2018-03-26T18:21:24.315Z,5.52
2018-03-26T18:23:54.372Z,5.58
2018-03-26T18:26:24.412Z,5.56
2018-03-26T18:28:53.515Z,5.41
2018-03-26T18:31:22.017Z,5.67
2018-03-26T18:33:52.449Z,5.51
2018-03-26T18:36:20.954Z,5.49
2018-03-26T18:38:49.428Z,5.66
2018-03-26T18:41:19.847Z,5.58
2018-03-26T18:43:48.321Z,5.33
2018-03-26T18:46:18.913Z,5.46
2018-03-26T18:48:47.418Z,5.54
2018-03-26T18:51:18.039Z,5.39
2018-03-26T18:53:46.748Z,5.19
2018-03-26T18:56:15.220Z,5.06
2018-03-26T18:58:45.566Z,5.14
2018-03-26T19:01:15.726Z,5.03
2018-03-26T19:03:45.790Z,4.95
2018-03-26T19:06:14.319Z,4.94
2018-03-26T19:08:42.837Z,5.04
2018-03-26T19:11:11.391Z,5.11
2018-03-26T19:13:39.922Z,5.18
2018-03-26T19:16:08.427Z,4.94
2018-03-26T19:18:36.915Z,4.91
2018-03-26T19:21:10.322Z,4.81
2018-03-26T19:23:38.789Z,4.82
2018-03-26T19:26:07.672Z,4.74
2018-03-26T19:28:37.665Z,4.75
2018-03-26T19:31:06.159Z,4.66
2018-03-26T19:33:34.629Z,4.65
2018-03-26T19:36:06.463Z,4.84
2018-03-26T19:38:34.914Z,4.65
2018-03-26T19:41:04.983Z,4.63
2018-03-26T19:43:33.469Z,4.60
2018-03-26T19:46:01.924Z,4.58
2018-03-26T19:48:30.585Z,4.55
2018-03-26T19:51:02.271Z,4.58
2018-03-26T19:53:30.770Z,4.58
2018-03-26T19:55:59.197Z,4.58
2018-03-26T19:58:29.152Z,4.61
2018-03-26T20:00:57.569Z,4.69
2018-03-26T20:03:26.057Z,4.93
2018-03-26T20:05:56.493Z,4.76
2018-03-26T20:08:24.959Z,4.88
2018-03-26T20:10:53.843Z,4.61
2018-03-26T20:13:22.261Z,4.62
2018-03-26T20:15:52.698Z,4.51
2018-03-26T20:18:21.412Z,4.47
2018-03-26T20:20:49.905Z,4.42
2018-03-26T20:23:18.381Z,4.44
2018-03-26T20:25:46.852Z,4.49
2018-03-26T20:28:15.319Z,4.52
2018-03-26T20:30:45.343Z,4.57
2018-03-26T20:33:15.238Z,4.55
2018-03-26T20:35:43.744Z,4.58
2018-03-26T20:38:12.246Z,4.59
2018-03-26T20:40:42.446Z,4.65
2018-03-26T20:43:10.863Z,4.67
2018-03-26T20:45:39.491Z,4.68
2018-03-26T20:48:09.539Z,4.70
2018-03-26T20:50:37.952Z,4.76
2018-03-26T20:53:07.952Z,4.73
2018-03-26T20:55:36.410Z,4.69
2018-03-26T20:58:06.364Z,4.73
2018-03-26T21:00:36.201Z,4.70
2018-03-26T21:03:04.710Z,4.80
2018-03-26T21:05:33.173Z,4.79
2018-03-26T21:08:01.637Z,4.85
2018-03-26T21:10:30.130Z,4.73
2018-03-26T21:12:58.513Z,4.77
2018-03-26T21:15:27.018Z,4.83
2018-03-26T21:17:55.593Z,4.86
2018-03-26T21:20:24.033Z,4.72
2018-03-26T21:22:56.561Z,4.68
2018-03-26T21:25:26.574Z,4.64
2018-03-26T21:27:55.041Z,4.69
2018-03-26T21:30:23.509Z,4.81
2018-03-26T21:32:51.891Z,4.69
2018-03-26T21:35:20.346Z,4.70
2018-03-26T21:37:48.801Z,4.67
2018-03-26T21:40:17.237Z,4.69
2018-03-26T21:42:45.735Z,4.72
2018-03-26T21:45:14.213Z,4.73
2018-03-26T21:47:42.626Z,4.74
2018-03-26T21:50:12.951Z,4.70
2018-03-26T21:52:42.870Z,4.68
2018-03-26T21:55:15.453Z,4.70
2018-03-26T21:57:43.821Z,4.67
2018-03-26T22:00:16.165Z,4.68
2018-03-26T22:02:44.835Z,4.61
2018-03-26T22:05:13.330Z,4.61
2018-03-26T22:07:43.741Z,4.52
2018-03-26T22:10:12.535Z,4.52
2018-03-26T22:12:40.946Z,4.60
2018-03-26T22:15:09.327Z,4.60
2018-03-26T22:17:39.442Z,4.60
2018-03-26T22:20:07.817Z,4.61
2018-03-26T22:22:37.763Z,4.54
2018-03-26T22:25:08.079Z,4.60
2018-03-26T22:27:36.503Z,4.71
2018-03-26T22:30:06.416Z,4.68
2018-03-26T22:32:34.852Z,4.65
2018-03-26T22:35:03.258Z,4.68
2018-03-26T22:37:35.097Z,4.55
2018-03-26T22:40:03.536Z,4.43
2018-03-26T22:42:31.949Z,4.39
2018-03-26T22:45:01.239Z,4.41
2018-03-26T22:47:29.645Z,4.41
2018-03-26T22:49:58.055Z,4.48
2018-03-26T22:52:26.503Z,4.38
2018-03-26T22:54:55.674Z,4.32
2018-03-26T22:57:24.056Z,4.53
2018-03-26T22:59:53.972Z,4.48
2018-03-26T23:02:22.332Z,4.50
2018-03-26T23:04:51.203Z,4.48
2018-03-26T23:07:19.632Z,4.50
2018-03-26T23:09:48.018Z,4.53
2018-03-26T23:12:16.454Z,4.54
2018-03-26T23:14:44.852Z,4.58
2018-03-26T23:17:13.331Z,4.64
2018-03-26T23:19:42.696Z,4.58
2018-03-26T23:22:11.123Z,4.57
2018-03-26T23:24:41.109Z,4.63
2018-03-26T23:27:09.540Z,4.68
2018-03-26T23:29:39.261Z,4.69
2018-03-26T23:32:07.740Z,4.66
2018-03-26T23:34:38.142Z,4.67
2018-03-26T23:37:06.574Z,4.70
2018-03-26T23:39:34.984Z,4.70
2018-03-26T23:42:05.252Z,4.74
2018-03-26T23:44:33.681Z,4.74
2018-03-26T23:47:02.114Z,4.71
2018-03-26T23:49:30.693Z,4.60
2018-03-26T23:51:59.100Z,4.63
2018-03-26T23:54:27.562Z,4.64
2018-03-26T23:56:59.982Z,4.55
2018-03-26T23:59:28.396Z,4.56
